Time;durP1;ratioP1;P1;durP2;ratioP2;P2;SDS_P1;SDS_P2;PMS_P1;PMS_P2;Temp;Humidity;BMP_temperature;BMP_pressure;BME280_temperature;BME280_humidity;BME280_pressure;Samples;Min_cycle;Max_cycle;Signal;HPM_P1;HPM_P2
2022/06/11 00:01:52;;;;;;;;;;;;;;;22.27;83.37;96416.52;601001;236;62672;-68
2022/06/11 00:04:21;;;;;;;;;;;;;;;22.27;83.37;96415.73;601023;236;67131;-67
2022/06/11 00:06:50;;;;;;;;;;;;;;;22.28;83.42;96414.62;600977;233;66935;-68
2022/06/11 00:09:18;;;;;;;;;;;;;;;22.28;83.42;96411.95;601042;236;63047;-68
2022/06/11 00:11:46;;;;;;;;;;;;;;;22.27;83.42;96413.84;600995;236;67161;-68
2022/06/11 00:14:14;;;;;;;;;;;;;;;22.27;83.50;96405.02;601027;236;66931;-68
2022/06/11 00:16:43;;;;;;;;;;;;;;;22.27;83.48;96405.02;600991;236;65130;-67
2022/06/11 00:19:10;;;;;;;;;;;;;;;22.28;83.45;96401.25;600990;236;67075;-68
2022/06/11 00:21:39;;;;;;;;;;;;;;;22.27;83.46;96405.02;601038;236;66897;-68
2022/06/11 00:24:07;;;;;;;;;;;;;;;22.26;83.46;96406.91;601075;236;64976;-68
2022/06/11 00:26:36;;;;;;;;;;;;;;;22.28;83.44;96406.59;600975;236;67280;-68
2022/06/11 00:29:04;;;;;;;;;;;;;;;22.27;83.38;96405.81;601032;236;64850;-68
2022/06/11 00:31:31;;;;;;;;;;;;;;;22.27;83.42;96399.67;601005;236;62860;-68
2022/06/11 00:33:59;;;;;;;;;;;;;;;22.26;83.38;96406.91;601019;236;64894;-68
2022/06/11 00:36:26;;;;;;;;;;;;;;;22.27;83.37;96402.34;601093;236;64586;-68
2022/06/11 00:38:54;;;;;;;;;;;;;;;22.27;83.35;96405.81;600985;236;62759;-68
2022/06/11 00:41:23;;;;;;;;;;;;;;;22.27;83.43;96411.16;601019;236;64918;-71
2022/06/11 00:43:52;;;;;;;;;;;;;;;22.28;83.34;96417.30;601004;234;64983;-71
2022/06/11 00:46:38;;;;;;;;;;;;;;;22.27;83.15;96405.02;601001;236;62382;-72
2022/06/11 00:49:07;;;;;;;;;;;;;;;22.27;83.62;96411.16;601019;234;67043;-72
2022/06/11 00:51:35;;;;;;;;;;;;;;;22.26;83.35;96412.27;600986;233;64944;-71
2022/06/11 00:54:04;;;;;;;;;;;;;;;22.28;83.40;96401.25;601018;236;62879;-71
2022/06/11 00:56:33;;;;;;;;;;;;;;;22.27;83.43;96405.02;601021;236;67268;-71
2022/06/11 00:59:02;;;;;;;;;;;;;;;22.27;83.48;96397.78;600939;236;66882;-71
2022/06/11 01:01:30;;;;;;;;;;;;;;;22.27;82.64;96400.45;601056;236;65876;-71
2022/06/11 01:03:59;;;;;;;;;;;;;;;22.28;83.09;96393.22;601071;235;66978;-71
2022/06/11 01:06:34;;;;;;;;;;;;;;;22.27;83.38;96392.42;601023;236;64520;-71
2022/06/11 01:09:12;;;;;;;;;;;;;;;22.27;83.33;96394.31;600991;236;65129;-71
2022/06/11 01:11:42;;;;;;;;;;;;;;;22.24;83.32;96387.66;601714;236;67054;-71
2022/06/11 01:14:27;;;;;;;;;;;;;;;22.26;83.21;96390.84;601784;236;64389;-71
2022/06/11 01:17:13;;;;;;;;;;;;;;;22.26;83.27;96390.84;601786;236;62754;-72
2022/06/11 01:19:58;;;;;;;;;;;;;;;22.25;83.25;96389.24;601812;236;64737;-71
2022/06/11 01:22:28;;;;;;;;;;;;;;;22.24;83.15;96395.70;601837;236;66883;-68
2022/06/11 01:25:09;;;;;;;;;;;;;;;22.25;83.29;96391.92;601772;233;65319;-70
2022/06/11 01:27:41;;;;;;;;;;;;;;;22.26;83.38;96404.23;601812;236;64976;-69
2022/06/11 01:30:10;;;;;;;;;;;;;;;22.25;83.24;96391.13;601740;236;64859;-69
2022/06/11 01:32:48;;;;;;;;;;;;;;;22.25;83.29;96396.48;601777;236;64856;-72
2022/06/11 01:35:17;;;;;;;;;;;;;;;22.25;83.30;96397.27;601661;233;68004;-71
2022/06/11 01:37:51;;;;;;;;;;;;;;;22.25;83.29;96401.84;601810;233;67053;-71
2022/06/11 01:40:20;;;;;;;;;;;;;;;22.24;83.31;96401.05;601840;236;64295;-71
2022/06/11 01:42:50;;;;;;;;;;;;;;;22.25;83.32;96401.84;601713;233;65043;-71
2022/06/11 01:45:28;;;;;;;;;;;;;;;22.25;83.35;96405.30;601721;233;67086;-71
2022/06/11 01:47:56;;;;;;;;;;;;;;;22.24;83.38;96403.72;601700;233;65109;-71
2022/06/11 01:50:25;;;;;;;;;;;;;;;22.25;83.32;96407.98;601759;236;65008;-71
2022/06/11 01:52:54;;;;;;;;;;;;;;;22.24;83.31;96411.75;601829;236;66672;-71
2022/06/11 01:55:33;;;;;;;;;;;;;;;22.24;83.28;96411.75;601810;233;65133;-71
2022/06/11 01:58:02;;;;;;;;;;;;;;;22.24;83.32;96408.28;601752;236;64534;-71
2022/06/11 02:00:31;;;;;;;;;;;;;;;22.24;83.32;96409.08;601741;236;65230;-71
2022/06/11 02:03:12;;;;;;;;;;;;;;;22.24;83.28;96409.08;601792;236;62754;-71
2022/06/11 02:05:41;;;;;;;;;;;;;;;22.24;83.31;96409.08;601776;236;65031;-69
2022/06/11 02:08:10;;;;;;;;;;;;;;;22.24;83.28;96414.43;601809;236;64815;-69
2022/06/11 02:10:42;;;;;;;;;;;;;;;22.24;83.29;96417.11;601292;233;64933;-69
2022/06/11 02:13:12;;;;;;;;;;;;;;;22.24;83.25;96414.43;601014;236;67191;-69
2022/06/11 02:15:44;;;;;;;;;;;;;;;22.24;83.29;96417.11;600539;233;66766;-69
2022/06/11 02:18:13;;;;;;;;;;;;;;;22.24;83.30;96414.43;601032;233;64890;-68
2022/06/11 02:20:45;;;;;;;;;;;;;;;22.24;83.31;96413.64;600998;236;66569;-68
2022/06/11 02:23:16;;;;;;;;;;;;;;;22.24;83.30;96406.40;600000;233;66711;-68
2022/06/11 02:25:48;;;;;;;;;;;;;;;22.23;83.31;96410.14;600992;236;64966;-68
2022/06/11 02:28:18;;;;;;;;;;;;;;;22.23;83.31;96412.82;601010;236;64868;-68
2022/06/11 02:30:47;;;;;;;;;;;;;;;22.24;83.31;96419.78;601037;236;66645;-68
2022/06/11 02:33:16;;;;;;;;;;;;;;;22.24;83.30;96419.78;601034;236;63078;-68
2022/06/11 02:35:46;;;;;;;;;;;;;;;22.24;83.32;96427.02;601070;236;66830;-68
2022/06/11 02:38:15;;;;;;;;;;;;;;;22.23;83.36;96426.20;601105;236;64678;-68
2022/06/11 02:40:44;;;;;;;;;;;;;;;22.24;83.43;96427.02;601041;236;62820;-68
2022/06/11 02:43:12;;;;;;;;;;;;;;;22.24;83.46;96422.45;601070;236;64716;-68
2022/06/11 02:45:39;;;;;;;;;;;;;;;22.24;83.52;96427.02;601065;236;64651;-68
2022/06/11 02:48:07;;;;;;;;;;;;;;;22.24;83.53;96421.67;601015;236;63724;-68
2022/06/11 02:50:35;;;;;;;;;;;;;;;22.24;83.52;96427.81;601067;234;64594;-68
2022/06/11 02:53:05;;;;;;;;;;;;;;;22.23;83.50;96428.88;601020;236;66690;-68
2022/06/11 02:55:33;;;;;;;;;;;;;;;22.23;83.49;96434.23;601056;236;63033;-68
2022/06/11 02:58:00;;;;;;;;;;;;;;;22.24;83.48;96438.52;601047;236;64873;-68
2022/06/11 03:00:29;;;;;;;;;;;;;;;22.24;83.48;96440.41;601063;236;66797;-67
2022/06/11 03:02:57;;;;;;;;;;;;;;;22.24;83.51;96443.88;601096;236;62717;-68
2022/06/11 03:05:26;;;;;;;;;;;;;;;22.23;83.50;96444.16;601055;236;64575;-68
2022/06/11 03:07:53;;;;;;;;;;;;;;;22.24;83.51;96449.22;601047;233;64365;-68
2022/06/11 03:10:22;;;;;;;;;;;;;;;22.24;83.54;96453.79;601002;236;62782;-68
2022/06/11 03:12:50;;;;;;;;;;;;;;;22.23;83.54;96442.27;601031;236;66995;-68
2022/06/11 03:15:18;;;;;;;;;;;;;;;22.23;83.56;96452.97;601047;236;66906;-68
2022/06/11 03:17:47;;;;;;;;;;;;;;;22.23;83.58;96452.18;601046;236;62786;-68
2022/06/11 03:20:15;;;;;;;;;;;;;;;22.23;83.54;96449.50;601022;236;64665;-68
2022/06/11 03:22:43;;;;;;;;;;;;;;;22.23;83.53;96444.94;601063;236;64496;-68
2022/06/11 03:25:11;;;;;;;;;;;;;;;22.23;83.54;96447.61;601035;236;65044;-71
2022/06/11 03:27:40;;;;;;;;;;;;;;;22.24;83.50;96443.08;601034;236;66775;-72
2022/06/11 03:30:09;;;;;;;;;;;;;;;22.22;83.47;96439.89;601081;236;64639;-71
2022/06/11 03:32:36;;;;;;;;;;;;;;;22.23;83.43;96441.47;601044;236;63067;-72
2022/06/11 03:35:05;;;;;;;;;;;;;;;22.23;83.43;96438.80;601059;236;64399;-72
2022/06/11 03:37:33;;;;;;;;;;;;;;;22.23;83.42;96436.91;601023;236;66670;-72
2022/06/11 03:40:01;;;;;;;;;;;;;;;22.23;83.43;96434.23;601030;236;65020;-72
2022/06/11 03:42:29;;;;;;;;;;;;;;;22.23;83.50;96430.77;601066;234;68043;-72
2022/06/11 03:44:56;;;;;;;;;;;;;;;22.22;83.52;96429.98;601038;236;66699;-71
2022/06/11 03:47:24;;;;;;;;;;;;;;;22.23;83.52;96436.13;601054;236;65122;-72
2022/06/11 03:49:51;;;;;;;;;;;;;;;22.23;83.54;96438.80;601061;236;66757;-72
2022/06/11 03:52:18;;;;;;;;;;;;;;;22.24;83.54;96440.41;601038;236;66747;-68
2022/06/11 03:54:47;;;;;;;;;;;;;;;22.22;83.53;96446.04;601053;236;64951;-68
2022/06/11 03:57:15;;;;;;;;;;;;;;;22.23;83.59;96446.83;601091;236;64653;-71
2022/06/11 03:59:43;;;;;;;;;;;;;;;22.23;83.57;96449.50;601044;236;66773;-72
2022/06/11 04:02:10;;;;;;;;;;;;;;;22.22;83.55;96446.04;601050;236;66137;-71
2022/06/11 04:04:38;;;;;;;;;;;;;;;22.21;83.56;96443.64;601027;236;66803;-72
2022/06/11 04:07:05;;;;;;;;;;;;;;;22.23;83.61;96446.83;601101;236;66689;-71
2022/06/11 04:09:34;;;;;;;;;;;;;;;22.21;83.63;96444.45;601011;236;66039;-68
2022/06/11 04:12:02;;;;;;;;;;;;;;;22.22;83.62;96451.39;601802;236;66651;-68
2022/06/11 04:14:30;;;;;;;;;;;;;;;22.23;83.63;96458.33;601810;236;64837;-68
2022/06/11 04:16:59;;;;;;;;;;;;;;;22.23;83.61;96470.91;601782;236;66082;-68
2022/06/11 04:19:28;;;;;;;;;;;;;;;22.22;83.62;96462.09;601844;233;64549;-68
2022/06/11 04:21:57;;;;;;;;;;;;;;;22.21;83.65;96463.19;601843;236;66539;-68
2022/06/11 04:24:24;;;;;;;;;;;;;;;22.21;83.67;96465.88;601789;236;64984;-68
2022/06/11 04:26:54;;;;;;;;;;;;;;;22.22;83.63;96472.02;601818;236;66995;-68
2022/06/11 04:29:22;;;;;;;;;;;;;;;22.21;83.65;96465.88;601761;234;66961;-68
2022/06/11 04:31:52;;;;;;;;;;;;;;;22.22;83.64;96463.98;601791;234;64914;-68
2022/06/11 04:34:20;;;;;;;;;;;;;;;22.22;83.71;96466.66;601793;236;64589;-68
2022/06/11 04:36:48;;;;;;;;;;;;;;;22.21;83.66;96465.05;601803;236;66644;-68
2022/06/11 04:39:17;;;;;;;;;;;;;;;22.21;83.66;96468.55;601788;236;65395;-68
2022/06/11 04:41:45;;;;;;;;;;;;;;;22.22;83.64;96466.66;601800;236;64801;-68
2022/06/11 04:44:13;;;;;;;;;;;;;;;22.21;83.66;96468.55;601816;236;64587;-68
2022/06/11 04:46:41;;;;;;;;;;;;;;;22.21;83.66;96459.70;601852;236;65037;-68
2022/06/11 04:49:08;;;;;;;;;;;;;;;22.21;83.65;96467.73;601793;236;66526;-68
2022/06/11 04:51:36;;;;;;;;;;;;;;;22.21;83.63;96463.19;601815;236;64544;-68
2022/06/11 04:54:04;;;;;;;;;;;;;;;22.21;83.63;96465.88;601747;236;62847;-68
2022/06/11 04:56:32;;;;;;;;;;;;;;;22.22;83.64;96463.98;601808;236;64891;-68
2022/06/11 04:58:59;;;;;;;;;;;;;;;22.21;83.64;96465.88;601857;236;64717;-68
2022/06/11 05:01:27;;;;;;;;;;;;;;;22.21;83.67;96468.55;601795;236;62883;-68
2022/06/11 05:03:55;;;;;;;;;;;;;;;22.21;83.66;96470.41;601805;236;64650;-68
2022/06/11 05:06:24;;;;;;;;;;;;;;;22.21;83.69;96468.55;601815;236;64496;-68
2022/06/11 05:08:51;;;;;;;;;;;;;;;22.21;83.73;96479.25;601772;233;63704;-68
2022/06/11 05:11:19;;;;;;;;;;;;;;;22.20;83.69;96493.70;601807;234;66614;-68
2022/06/11 05:13:47;;;;;;;;;;;;;;;22.20;83.67;96501.73;601752;236;66416;-68
2022/06/11 05:16:16;;;;;;;;;;;;;;;22.21;83.72;96508.70;601662;236;62755;-68
2022/06/11 05:18:43;;;;;;;;;;;;;;;22.21;83.73;96511.38;601776;236;66539;-68
2022/06/11 05:21:11;;;;;;;;;;;;;;;22.22;83.77;96514.84;601702;236;66350;-68
2022/06/11 05:23:38;;;;;;;;;;;;;;;22.21;83.87;96513.23;601210;236;65119;-71
2022/06/11 05:26:06;;;;;;;;;;;;;;;22.21;83.81;96521.26;601864;236;64077;-72
2022/06/11 05:28:34;;;;;;;;;;;;;;;22.20;83.85;96523.14;601714;236;66366;-71
2022/06/11 05:31:02;;;;;;;;;;;;;;;22.21;83.84;96524.75;601819;236;65993;-72
2022/06/11 05:33:30;;;;;;;;;;;;;;;22.20;83.83;96517.00;601765;236;67406;-72
2022/06/11 05:35:57;;;;;;;;;;;;;;;22.20;83.83;96523.14;601824;236;66370;-68
2022/06/11 05:38:26;;;;;;;;;;;;;;;22.20;83.85;96523.14;601848;236;65339;-68
2022/06/11 05:40:54;;;;;;;;;;;;;;;22.20;83.84;96517.79;601746;236;66990;-69
2022/06/11 05:43:22;;;;;;;;;;;;;;;22.20;83.85;96508.97;601758;236;66954;-68
2022/06/11 05:45:51;;;;;;;;;;;;;;;22.20;83.81;96500.94;601782;236;64876;-68
2022/06/11 05:48:20;;;;;;;;;;;;;;;22.21;83.83;96510.55;601723;233;66753;-68
2022/06/11 05:50:50;;;;;;;;;;;;;;;22.19;83.81;96521.56;601833;236;66678;-68
2022/06/11 05:53:19;;;;;;;;;;;;;;;22.20;83.84;96517.79;601795;236;64918;-68
2022/06/11 05:55:47;;;;;;;;;;;;;;;22.20;83.88;96517.79;601760;236;64509;-68
2022/06/11 05:58:18;;;;;;;;;;;;;;;22.20;83.91;96525.03;601644;236;45550;-67
2022/06/11 06:00:48;;;;;;;;;;;;;;;22.20;83.93;96531.17;601807;236;42468;-70
2022/06/11 06:03:18;;;;;;;;;;;;;;;22.20;83.98;96525.82;601788;236;64421;-70
2022/06/11 06:05:45;;;;;;;;;;;;;;;22.20;83.95;96527.70;601840;235;64592;-69
2022/06/11 06:08:13;;;;;;;;;;;;;;;22.20;83.90;96533.06;601772;236;62800;-69
2022/06/11 06:10:40;;;;;;;;;;;;;;;22.19;83.90;96548.33;601379;236;67158;-69
2022/06/11 06:15:54;;;;;;;;;;;;;;;22.19;83.62;96542.98;601052;236;65274;-68
2022/06/11 06:18:22;;;;;;;;;;;;;;;22.18;83.69;96541.39;601119;236;67021;-68
2022/06/11 06:20:50;;;;;;;;;;;;;;;22.19;83.83;96551.00;601024;236;66476;-68
2022/06/11 06:23:17;;;;;;;;;;;;;;;22.20;83.80;96554.47;601051;236;62733;-67
2022/06/11 06:25:45;;;;;;;;;;;;;;;22.20;83.84;96552.58;601050;236;64795;-67
2022/06/11 06:28:12;;;;;;;;;;;;;;;22.20;83.82;96554.47;601039;234;66937;-68
2022/06/11 06:30:40;;;;;;;;;;;;;;;22.22;83.87;96552.31;601021;236;64915;-68
2022/06/11 06:33:08;;;;;;;;;;;;;;;22.22;83.99;96561.13;600997;236;65060;-68
2022/06/11 06:35:35;;;;;;;;;;;;;;;22.23;84.12;96564.59;601018;236;65812;-68
2022/06/11 06:38:03;;;;;;;;;;;;;;;22.22;84.21;96571.84;601041;234;64815;-68
2022/06/11 06:40:32;;;;;;;;;;;;;;;22.24;84.20;96571.56;601043;236;64894;-68
2022/06/11 06:42:59;;;;;;;;;;;;;;;22.24;84.23;96571.56;601037;236;66925;-68
2022/06/11 06:45:27;;;;;;;;;;;;;;;22.24;84.23;96583.05;601072;236;65012;-68
2022/06/11 06:47:54;;;;;;;;;;;;;;;22.23;84.25;96578.77;601021;236;64908;-68
2022/06/11 06:50:22;;;;;;;;;;;;;;;22.24;84.22;96583.05;601047;236;64500;-68
2022/06/11 06:52:49;;;;;;;;;;;;;;;22.25;84.26;96592.66;601037;234;62834;-68
2022/06/11 06:55:17;;;;;;;;;;;;;;;22.25;84.26;96589.98;601017;236;64905;-68
2022/06/11 06:57:44;;;;;;;;;;;;;;;22.27;84.25;96587.03;601051;236;65142;-68
2022/06/11 07:00:12;;;;;;;;;;;;;;;22.27;84.25;96587.03;601016;236;62814;-68
2022/06/11 07:02:39;;;;;;;;;;;;;;;22.27;84.26;96587.03;601054;236;64937;-68
2022/06/11 07:05:10;;;;;;;;;;;;;;;22.26;84.20;96585.42;601014;236;64801;-68
2022/06/11 07:07:38;;;;;;;;;;;;;;;22.27;84.21;96589.71;600991;236;65094;-68
2022/06/11 07:10:06;;;;;;;;;;;;;;;22.26;84.16;96596.95;601116;236;67093;-68
2022/06/11 07:12:33;;;;;;;;;;;;;;;22.27;84.17;96595.86;601770;236;66671;-68
2022/06/11 07:15:03;;;;;;;;;;;;;;;22.27;84.17;96603.09;601499;236;42624;-68
2022/06/11 07:17:32;;;;;;;;;;;;;;;22.26;84.17;96591.59;600990;236;64579;-68
2022/06/11 07:20:00;;;;;;;;;;;;;;;22.27;84.17;96598.53;601715;236;64870;-68
2022/06/11 07:22:33;;;;;;;;;;;;;;;22.28;84.17;96593.97;601695;236;65140;-72
2022/06/11 07:25:01;;;;;;;;;;;;;;;22.28;84.14;96610.82;601783;233;67348;-71
2022/06/11 07:27:30;;;;;;;;;;;;;;;22.29;84.15;96611.61;601736;236;66851;-72
2022/06/11 07:29:59;;;;;;;;;;;;;;;22.30;84.13;96616.69;601753;236;65553;-72
2022/06/11 07:32:29;;;;;;;;;;;;;;;22.28;84.10;96613.50;601784;236;67087;-72
2022/06/11 07:34:58;;;;;;;;;;;;;;;22.29;84.11;96609.76;601750;236;66792;-72
2022/06/11 07:37:27;;;;;;;;;;;;;;;22.29;84.15;96619.64;601833;236;62736;-72
2022/06/11 07:39:54;;;;;;;;;;;;;;;22.29;84.15;96612.44;601754;236;65903;-72
2022/06/11 07:42:22;;;;;;;;;;;;;;;22.29;84.13;96617.79;601767;236;64906;-72
2022/06/11 07:44:49;;;;;;;;;;;;;;;22.30;84.12;96618.58;601743;236;62775;-72
2022/06/11 07:47:53;;;;;;;;;;;;;;;22.29;84.11;96620.47;601725;236;64793;-72
2022/06/11 07:49:46;;;;;;;;;;;;;;;22.30;84.10;96624.72;600829;236;64782;-72
2022/06/11 07:52:15;;;;;;;;;;;;;;;22.31;84.09;96623.63;601757;236;64684;-72
2022/06/11 07:54:42;;;;;;;;;;;;;;;22.30;84.06;96621.25;601766;236;67355;-72
2022/06/11 07:57:10;;;;;;;;;;;;;;;22.31;84.04;96625.52;601788;236;66889;-72
2022/06/11 07:59:39;;;;;;;;;;;;;;;22.31;84.03;96626.30;601788;236;64846;-72
2022/06/11 08:02:07;;;;;;;;;;;;;;;22.31;84.04;96623.63;601776;236;64839;-73
2022/06/11 08:04:35;;;;;;;;;;;;;;;22.30;84.03;96621.25;601860;236;64615;-68
2022/06/11 08:07:03;;;;;;;;;;;;;;;22.31;83.97;96618.27;601737;236;66075;-68
2022/06/11 08:09:30;;;;;;;;;;;;;;;22.31;83.95;96620.95;601709;233;64956;-68
2022/06/11 08:11:58;;;;;;;;;;;;;;;22.30;83.94;96624.72;601004;236;65172;-68
2022/06/11 08:14:25;;;;;;;;;;;;;;;22.31;83.94;96617.48;600995;236;65145;-68
2022/06/11 08:16:53;;;;;;;;;;;;;;;22.32;83.91;96621.77;601054;236;67082;-68
2022/06/11 08:19:21;;;;;;;;;;;;;;;22.32;83.91;96616.41;601007;236;66941;-68
2022/06/11 08:21:49;;;;;;;;;;;;;;;22.32;83.89;96622.56;601010;236;64939;-68
2022/06/11 08:24:16;;;;;;;;;;;;;;;22.31;83.85;96612.92;601022;236;67098;-68
2022/06/11 08:26:45;;;;;;;;;;;;;;;22.32;83.85;96616.41;601009;236;66866;-68
2022/06/11 08:29:13;;;;;;;;;;;;;;;22.31;83.86;96609.45;601095;236;62948;-68
2022/06/11 08:31:40;;;;;;;;;;;;;;;22.32;83.82;96617.20;601008;236;66867;-68
2022/06/11 08:34:08;;;;;;;;;;;;;;;22.33;83.82;96618.00;600985;236;67051;-68
2022/06/11 08:36:35;;;;;;;;;;;;;;;22.32;83.83;96616.41;601018;236;62775;-68
2022/06/11 08:39:03;;;;;;;;;;;;;;;22.33;83.80;96615.32;601010;236;65989;-68
2022/06/11 08:41:32;;;;;;;;;;;;;;;22.33;83.76;96618.00;601087;236;64918;-69
2022/06/11 08:44:04;;;;;;;;;;;;;;;22.33;83.74;96615.32;601051;236;62778;-68
2022/06/11 08:46:32;;;;;;;;;;;;;;;22.33;83.72;96607.29;600945;236;67294;-69
2022/06/11 08:49:04;;;;;;;;;;;;;;;22.32;83.70;96611.85;600954;233;64684;-69
2022/06/11 08:51:39;;;;;;;;;;;;;;;22.33;83.70;96605.41;600992;236;64851;-68
2022/06/11 08:54:09;;;;;;;;;;;;;;;22.33;83.67;96604.61;600964;233;67226;-68
2022/06/11 08:56:54;;;;;;;;;;;;;;;22.33;83.61;96601.94;601024;236;67024;-68
2022/06/11 08:59:40;;;;;;;;;;;;;;;22.33;83.59;96605.41;601033;236;63113;-68
2022/06/11 09:02:27;;;;;;;;;;;;;;;22.32;83.62;96598.47;600970;236;67184;-68
2022/06/11 09:05:12;;;;;;;;;;;;;;;22.32;83.62;96603.82;600924;236;66896;-69
2022/06/11 09:07:41;;;;;;;;;;;;;;;22.33;83.63;96601.94;601010;236;65155;-68
2022/06/11 09:10:13;;;;;;;;;;;;;;;22.32;83.65;96600.36;600958;236;67048;-68
2022/06/11 09:12:54;;;;;;;;;;;;;;;22.32;83.58;96606.50;601011;234;66900;-69
2022/06/11 09:15:29;;;;;;;;;;;;;;;22.33;83.61;96602.73;600996;236;65116;-69
2022/06/11 09:17:58;;;;;;;;;;;;;;;22.33;83.58;96594.70;600995;233;66889;-69
2022/06/11 09:20:27;;;;;;;;;;;;;;;22.32;83.58;96601.14;601074;236;66340;-69
2022/06/11 09:23:09;;;;;;;;;;;;;;;22.33;83.58;96602.73;600965;233;64898;-69
2022/06/11 09:25:41;;;;;;;;;;;;;;;22.33;83.60;96608.08;601036;236;67011;-68
2022/06/11 09:28:10;;;;;;;;;;;;;;;22.33;83.61;96601.94;600958;236;66937;-67
2022/06/11 09:30:42;;;;;;;;;;;;;;;22.33;83.58;96616.11;601002;233;62838;-70
2022/06/11 09:33:20;;;;;;;;;;;;;;;22.33;83.54;96613.44;601035;236;64544;-67
2022/06/11 09:35:52;;;;;;;;;;;;;;;22.32;83.55;96603.82;601031;236;64573;-72
2022/06/11 09:38:33;;;;;;;;;;;;;;;22.33;83.56;96608.08;600919;233;62802;-71
2022/06/11 09:41:04;;;;;;;;;;;;;;;22.34;83.57;96609.69;601005;235;66823;-72
2022/06/11 09:43:36;;;;;;;;;;;;;;;22.34;83.58;96614.22;600881;233;64649;-72
2022/06/11 09:46:05;;;;;;;;;;;;;;;22.34;83.59;96600.84;601034;236;65048;-68
2022/06/11 09:48:38;;;;;;;;;;;;;;;22.34;83.59;96614.22;600813;233;66780;-68
2022/06/11 09:51:23;;;;;;;;;;;;;;;22.34;83.58;96609.69;601030;236;67142;-72
2022/06/11 09:53:52;;;;;;;;;;;;;;;22.34;83.58;96615.05;600981;236;65343;-71
2022/06/11 09:56:21;;;;;;;;;;;;;;;22.34;83.55;96617.72;600980;233;65125;-71
2022/06/11 09:58:53;;;;;;;;;;;;;;;22.33;83.55;96621.47;600966;236;64853;-71
2022/06/11 10:01:23;;;;;;;;;;;;;;;22.34;83.55;96614.22;600983;233;62888;-71
2022/06/11 10:03:54;;;;;;;;;;;;;;;22.34;83.58;96620.39;600890;236;67204;-72
2022/06/11 10:06:27;;;;;;;;;;;;;;;22.34;83.57;96615.05;601021;233;67079;-68
2022/06/11 10:08:56;;;;;;;;;;;;;;;22.34;83.53;96620.39;600974;236;66341;-68
2022/06/11 10:11:37;;;;;;;;;;;;;;;22.34;83.51;96614.22;601543;236;67124;-68
2022/06/11 10:14:30;;;;;;;;;;;;;;;22.35;83.53;96621.19;601677;236;64796;-67
2022/06/11 10:17:17;;;;;;;;;;;;;;;22.34;83.55;96615.05;601631;236;63091;-68
2022/06/11 10:19:49;;;;;;;;;;;;;;;22.34;83.52;96620.39;601719;236;67308;-69
2022/06/11 10:22:27;;;;;;;;;;;;;;;22.34;83.54;96617.72;601596;233;66898;-69
2022/06/11 10:25:00;;;;;;;;;;;;;;;22.34;83.52;96609.69;601806;233;65392;-68
2022/06/11 10:27:29;;;;;;;;;;;;;;;22.34;83.53;96617.72;601669;233;69179;-68
2022/06/11 10:29:58;;;;;;;;;;;;;;;22.34;83.50;96609.69;601771;236;66895;-68
2022/06/11 10:32:27;;;;;;;;;;;;;;;22.33;83.51;96608.08;601777;236;64934;-68
2022/06/11 10:35:03;;;;;;;;;;;;;;;22.35;83.51;96621.98;601698;233;67084;-70
2022/06/11 10:37:41;;;;;;;;;;;;;;;22.34;83.46;96606.19;601849;233;66744;-69
2022/06/11 10:40:13;;;;;;;;;;;;;;;22.34;83.43;96617.72;601825;236;62849;-69
2022/06/11 10:42:46;;;;;;;;;;;;;;;22.34;83.37;96620.39;601764;236;67282;-69
2022/06/11 10:45:15;;;;;;;;;;;;;;;22.34;83.36;96616.90;601432;233;67348;-69
2022/06/11 10:47:43;;;;;;;;;;;;;;;22.35;83.40;96615.83;601766;236;65237;-69
2022/06/11 10:50:15;;;;;;;;;;;;;;;22.34;83.34;96615.05;601700;236;45904;-69
2022/06/11 10:52:53;;;;;;;;;;;;;;;22.36;83.33;96617.41;601811;236;66892;-69
2022/06/11 10:55:22;;;;;;;;;;;;;;;22.35;83.34;96607.80;601444;233;65213;-68
2022/06/11 10:57:51;;;;;;;;;;;;;;;22.34;83.31;96604.33;601744;233;64972;-68
2022/06/11 11:00:20;;;;;;;;;;;;;;;22.36;83.32;96601.35;601776;236;66978;-68
2022/06/11 11:02:52;;;;;;;;;;;;;;;22.36;83.31;96596.00;601822;236;64906;-68
2022/06/11 11:05:21;;;;;;;;;;;;;;;22.36;83.26;96598.67;601805;236;66810;-68
2022/06/11 11:07:59;;;;;;;;;;;;;;;22.34;83.29;96596.30;601777;236;67095;-67
2022/06/11 11:10:38;;;;;;;;;;;;;;;22.35;83.24;96599.77;601765;236;64926;-69
2022/06/11 11:13:16;;;;;;;;;;;;;;;22.35;83.21;96594.41;601596;236;45072;-68
2022/06/11 11:15:45;;;;;;;;;;;;;;;22.36;83.17;96593.32;601584;233;67048;-68
2022/06/11 11:18:14;;;;;;;;;;;;;;;22.35;83.18;96597.88;601796;236;63007;-68
2022/06/11 11:20:42;;;;;;;;;;;;;;;22.35;83.16;96589.85;601737;233;64982;-68
2022/06/11 11:23:12;;;;;;;;;;;;;;;22.35;83.15;96592.53;601801;236;65120;-71
2022/06/11 11:25:47;;;;;;;;;;;;;;;22.35;83.16;96589.85;601816;236;65048;-72
2022/06/11 11:28:25;;;;;;;;;;;;;;;22.36;83.17;96588.75;601739;236;67540;-72
2022/06/11 11:31:00;;;;;;;;;;;;;;;22.36;83.18;96585.29;601793;236;66876;-72
2022/06/11 11:33:29;;;;;;;;;;;;;;;22.36;83.17;96585.29;601754;236;64841;-72
2022/06/11 11:36:01;;;;;;;;;;;;;;;22.37;83.14;96597.58;601785;236;67116;-71
2022/06/11 11:38:29;;;;;;;;;;;;;;;22.35;83.12;96587.17;601844;236;65158;-71
2022/06/11 11:40:58;;;;;;;;;;;;;;;22.36;83.13;96596.78;601796;236;62928;-71
2022/06/11 11:43:26;;;;;;;;;;;;;;;22.37;83.07;96592.22;601738;233;65909;-71
2022/06/11 11:45:59;;;;;;;;;;;;;;;22.37;83.10;96592.22;601895;233;65025;-71
2022/06/11 11:48:31;;;;;;;;;;;;;;;22.36;83.05;96596.78;601793;236;65048;-71
2022/06/11 11:51:02;;;;;;;;;;;;;;;22.37;83.06;96592.22;601801;236;67240;-71
2022/06/11 11:53:31;;;;;;;;;;;;;;;22.36;83.07;96596.78;601844;233;67489;-71
2022/06/11 11:56:00;;;;;;;;;;;;;;;22.36;83.05;96596.00;601723;233;65073;-71
2022/06/11 11:58:29;;;;;;;;;;;;;;;22.36;83.06;96591.44;601763;236;67409;-73
2022/06/11 12:00:58;;;;;;;;;;;;;;;22.36;83.06;96596.78;601741;233;67377;-72
2022/06/11 12:03:27;;;;;;;;;;;;;;;22.36;83.08;96593.32;601877;233;62830;-72
2022/06/11 12:05:56;;;;;;;;;;;;;;;22.36;83.11;96591.44;601799;233;67377;-72
2022/06/11 12:08:28;;;;;;;;;;;;;;;22.37;83.09;96597.58;601791;236;67152;-73
2022/06/11 12:11:00;;;;;;;;;;;;;;;22.37;83.09;96597.58;601739;236;62931;-72
2022/06/11 12:13:30;;;;;;;;;;;;;;;22.36;83.04;96591.44;601830;236;48303;-73
2022/06/11 12:15:59;;;;;;;;;;;;;;;22.37;83.08;96593.05;601776;236;66980;-72
2022/06/11 12:18:29;;;;;;;;;;;;;;;22.36;83.05;96594.11;601849;236;62678;-73
2022/06/11 12:21:00;;;;;;;;;;;;;;;22.36;83.10;96591.44;601796;236;66762;-72
2022/06/11 12:23:32;;;;;;;;;;;;;;;22.37;83.07;96581.52;601785;236;64793;-72
2022/06/11 12:26:01;;;;;;;;;;;;;;;22.36;83.05;96583.41;601767;236;64866;-72
2022/06/11 12:28:33;;;;;;;;;;;;;;;22.36;83.05;96578.05;601708;233;67398;-72
2022/06/11 12:31:00;;;;;;;;;;;;;;;22.36;83.04;96580.72;601746;233;66969;-72
2022/06/11 12:33:28;;;;;;;;;;;;;;;22.37;83.04;96582.33;601774;236;62756;-73
2022/06/11 12:35:57;;;;;;;;;;;;;;;22.37;83.03;96585.02;601790;234;67075;-72
2022/06/11 12:38:29;;;;;;;;;;;;;;;22.37;83.02;96578.84;601752;234;67886;-73
2022/06/11 12:40:59;;;;;;;;;;;;;;;22.37;82.98;96584.19;601766;233;66034;-73
2022/06/11 12:43:27;;;;;;;;;;;;;;;22.37;83.05;96581.52;601816;236;64866;-73
2022/06/11 12:46:12;;;;;;;;;;;;;;;22.37;83.05;96581.52;601783;233;64802;-73
2022/06/11 12:48:43;;;;;;;;;;;;;;;22.38;83.03;96588.48;601889;236;44612;-72
2022/06/11 12:51:11;;;;;;;;;;;;;;;22.37;83.07;96587.69;601748;233;67115;-72
2022/06/11 12:53:52;;;;;;;;;;;;;;;22.36;83.08;96583.41;601748;233;66855;-71
2022/06/11 12:56:36;;;;;;;;;;;;;;;22.37;83.09;96582.33;601709;233;65004;-71
2022/06/11 12:59:15;;;;;;;;;;;;;;;22.37;83.11;96579.66;601814;233;67360;-71
2022/06/11 13:01:53;;;;;;;;;;;;;;;22.36;83.11;96575.38;601779;236;67035;-71
2022/06/11 13:04:23;;;;;;;;;;;;;;;22.37;83.13;96576.98;601783;236;62732;-72
2022/06/11 13:07:04;;;;;;;;;;;;;;;22.37;83.11;96582.33;601759;236;67348;-72